createdAt,value
2022-11-23T00:02:31.246Z,30.87
2022-11-23T00:05:08.736Z,28.83
2022-11-23T00:07:39.159Z,28.57
2022-11-23T00:10:09.696Z,26.03
2022-11-23T00:12:46.625Z,27.67
2022-11-23T00:15:17.727Z,26.97
2022-11-23T00:17:54.716Z,31.00
2022-11-23T00:20:24.210Z,31.13
2022-11-23T00:22:54.209Z,30.00
2022-11-23T00:25:42.411Z,27.30
2022-11-23T00:28:12.069Z,32.70
2022-11-23T00:30:43.501Z,31.20
2022-11-23T00:33:13.574Z,31.03
2022-11-23T00:35:47.752Z,33.83
2022-11-23T00:38:17.245Z,29.70
2022-11-23T00:41:26.604Z,34.13
2022-11-23T00:43:57.684Z,31.97
2022-11-23T00:46:29.802Z,31.23
2022-11-23T00:49:33.129Z,31.03
2022-11-23T00:52:06.387Z,31.30
2022-11-23T00:54:35.020Z,31.97
2022-11-23T00:57:03.634Z,30.43
2022-11-23T00:59:35.081Z,31.57
2022-11-23T01:05:17.354Z,31.77
2022-11-23T01:07:48.117Z,31.23
2022-11-23T01:10:16.610Z,29.47
2022-11-23T01:12:47.614Z,34.13
2022-11-23T01:15:26.450Z,30.07
2022-11-23T01:17:56.523Z,31.13
2022-11-23T01:20:28.576Z,32.13
2022-11-23T01:22:59.425Z,32.80
2022-11-23T01:25:28.220Z,34.47
2022-11-23T01:27:58.535Z,32.50
2022-11-23T01:33:06.615Z,37.33
2022-11-23T01:35:43.977Z,31.00
2022-11-23T01:38:18.015Z,28.73
2022-11-23T01:40:48.731Z,30.37
2022-11-23T01:43:20.394Z,32.60
2022-11-23T01:46:01.345Z,34.03
2022-11-23T01:48:38.277Z,32.13
2022-11-23T01:51:26.588Z,33.80
2022-11-23T01:54:05.591Z,32.60
2022-11-23T01:56:48.201Z,33.70
2022-11-23T01:59:20.124Z,33.03
2022-11-23T02:01:53.920Z,31.83
2022-11-23T02:04:28.854Z,30.27
2022-11-23T02:07:04.095Z,34.43
2022-11-23T02:09:36.657Z,32.50
2022-11-23T02:15:24.736Z,39.97
2022-11-23T02:18:04.686Z,34.90
2022-11-23T02:20:53.818Z,34.40
2022-11-23T02:23:44.231Z,35.67
2022-11-23T02:26:22.686Z,32.70
2022-11-23T02:29:13.819Z,33.07
2022-11-23T02:31:51.130Z,34.27
2022-11-23T02:37:11.566Z,36.67
2022-11-23T02:39:50.086Z,35.57
2022-11-23T02:42:22.678Z,39.00
2022-11-23T02:45:04.142Z,35.33
2022-11-23T02:50:22.062Z,34.13
2022-11-23T02:55:37.904Z,35.97
2022-11-23T02:58:11.550Z,36.63
2022-11-23T03:00:44.356Z,37.73
2022-11-23T03:03:18.624Z,31.13
2022-11-23T03:05:51.913Z,33.87
2022-11-23T03:08:24.656Z,34.13
2022-11-23T03:11:02.186Z,38.63
2022-11-23T03:13:35.823Z,33.73
2022-11-23T03:16:17.947Z,33.93
2022-11-23T03:18:50.759Z,35.43
2022-11-23T03:21:21.964Z,30.43
2022-11-23T03:23:53.176Z,30.83
2022-11-23T03:26:24.044Z,29.40
2022-11-23T03:29:14.123Z,28.77
2022-11-23T03:31:42.873Z,25.80
2022-11-23T03:34:12.504Z,28.37
2022-11-23T03:40:01.607Z,29.40
2022-11-23T03:42:48.753Z,29.17
2022-11-23T03:45:18.962Z,26.10
2022-11-23T03:47:48.078Z,28.13
2022-11-23T03:50:35.553Z,28.70
2022-11-23T03:53:09.805Z,30.03
2022-11-23T03:55:45.490Z,27.17
2022-11-23T03:58:16.440Z,27.83
2022-11-23T04:01:07.888Z,29.07
2022-11-23T04:03:38.127Z,29.53
2022-11-23T04:06:08.497Z,28.03
2022-11-23T04:08:48.602Z,34.33
2022-11-23T04:11:26.392Z,31.23
2022-11-23T04:13:57.439Z,28.93
2022-11-23T04:16:30.469Z,26.87
2022-11-23T04:19:04.285Z,32.23
2022-11-23T04:21:35.013Z,29.33
2022-11-23T04:24:04.058Z,31.50
2022-11-23T04:26:40.518Z,33.57
2022-11-23T04:29:10.913Z,48.47
2022-11-23T04:31:44.218Z,41.07
2022-11-23T04:34:14.218Z,44.90
2022-11-23T04:36:50.152Z,42.97
2022-11-23T04:39:21.749Z,44.77
2022-11-23T04:41:53.719Z,44.97
2022-11-23T04:44:43.382Z,44.13
2022-11-23T04:47:18.152Z,40.47
2022-11-23T04:52:33.716Z,36.00
2022-11-23T04:55:06.098Z,35.97
2022-11-23T04:57:35.514Z,32.77
2022-11-23T05:00:06.047Z,40.37
2022-11-23T05:02:38.825Z,39.97
2022-11-23T05:05:13.285Z,40.90
2022-11-23T05:07:49.342Z,42.93
2022-11-23T05:10:26.104Z,36.90
2022-11-23T05:13:04.320Z,33.60
2022-11-23T05:15:40.997Z,33.97
2022-11-23T05:18:12.953Z,34.77
2022-11-23T05:20:44.980Z,36.33
2022-11-23T05:23:30.807Z,39.53
2022-11-23T05:26:05.396Z,40.17
2022-11-23T05:28:40.636Z,36.37
2022-11-23T05:31:10.972Z,42.53
2022-11-23T05:36:31.401Z,37.33
2022-11-23T05:39:01.550Z,38.20
2022-11-23T05:41:38.110Z,39.93
2022-11-23T05:44:13.097Z,44.03
2022-11-23T05:46:48.964Z,47.40
2022-11-23T05:49:21.815Z,41.17
2022-11-23T05:52:04.965Z,41.10
2022-11-23T05:54:33.364Z,44.97
2022-11-23T05:57:06.160Z,41.20
2022-11-23T05:59:38.456Z,37.97
2022-11-23T06:02:08.285Z,40.40
2022-11-23T06:04:46.307Z,43.73
2022-11-23T06:07:18.449Z,37.43
2022-11-23T06:09:53.027Z,38.20
2022-11-23T06:12:22.742Z,38.53
2022-11-23T06:14:53.167Z,35.60
2022-11-23T06:17:41.737Z,36.27
2022-11-23T06:20:16.657Z,38.90
2022-11-23T06:22:55.191Z,29.97
2022-11-23T06:25:25.935Z,37.00
2022-11-23T06:28:01.151Z,30.47
2022-11-23T06:33:29.942Z,34.77
2022-11-23T06:36:01.162Z,33.37
2022-11-23T06:38:29.569Z,33.20
2022-11-23T06:41:00.119Z,32.73
2022-11-23T06:43:29.268Z,28.60
2022-11-23T06:45:58.572Z,31.77
2022-11-23T06:48:26.944Z,27.07
2022-11-23T06:50:56.548Z,29.90
2022-11-23T06:53:24.847Z,28.70
2022-11-23T06:55:53.522Z,31.97
2022-11-23T06:58:21.789Z,26.17
2022-11-23T07:00:50.073Z,35.47
2022-11-23T07:03:22.091Z,25.07
2022-11-23T07:05:50.723Z,29.23
2022-11-23T07:08:20.413Z,26.33
2022-11-23T07:10:49.327Z,30.17
2022-11-23T07:13:17.672Z,26.70
2022-11-23T07:15:45.881Z,33.33
2022-11-23T07:18:14.367Z,32.73
2022-11-23T07:20:42.660Z,35.70
2022-11-23T07:23:12.855Z,34.23
2022-11-23T07:25:42.715Z,26.90
2022-11-23T07:28:13.856Z,27.93
2022-11-23T07:30:42.178Z,21.03
2022-11-23T07:33:13.785Z,22.33
2022-11-23T07:35:42.542Z,26.37
2022-11-23T07:38:11.088Z,28.10
2022-11-23T07:40:41.951Z,24.13
2022-11-23T07:43:11.468Z,28.43
2022-11-23T07:45:39.735Z,23.97
2022-11-23T07:48:10.320Z,26.47
2022-11-23T07:50:40.724Z,25.43
2022-11-23T07:53:09.338Z,29.80
2022-11-23T07:55:37.565Z,24.00
2022-11-23T07:58:07.317Z,27.37
2022-11-23T08:00:35.590Z,26.00
2022-11-23T08:03:26.549Z,22.30
2022-11-23T08:05:52.989Z,29.10
2022-11-23T08:08:21.232Z,31.57
2022-11-23T08:10:53.292Z,23.77
2022-11-23T08:13:24.022Z,24.53
2022-11-23T08:15:55.455Z,27.30
2022-11-23T08:18:25.220Z,27.27
2022-11-23T08:20:53.770Z,19.43
2022-11-23T08:23:22.467Z,23.87
2022-11-23T08:25:51.034Z,20.80
2022-11-23T08:28:19.828Z,20.67
2022-11-23T08:30:49.772Z,22.37
2022-11-23T08:33:18.423Z,25.83
2022-11-23T08:35:46.798Z,21.53
2022-11-23T08:38:15.346Z,19.20
2022-11-23T08:40:43.884Z,23.57
2022-11-23T08:43:12.144Z,25.00
2022-11-23T08:45:40.394Z,19.03
2022-11-23T08:48:10.622Z,20.93
2022-11-23T08:50:39.398Z,19.53
2022-11-23T08:53:07.712Z,17.27
2022-11-23T08:55:35.960Z,16.80
2022-11-23T08:58:07.869Z,19.93
2022-11-23T09:00:40.140Z,20.63
2022-11-23T09:03:09.781Z,19.07
2022-11-23T09:05:40.566Z,18.00
2022-11-23T09:08:09.137Z,25.27
2022-11-23T09:10:37.778Z,19.17
2022-11-23T09:13:06.575Z,23.33
2022-11-23T09:15:34.870Z,22.90
2022-11-23T09:18:03.177Z,16.97
2022-11-23T09:20:32.676Z,18.40
2022-11-23T09:23:00.955Z,17.07
2022-11-23T09:25:29.213Z,20.23
2022-11-23T09:27:59.956Z,16.30
2022-11-23T09:30:28.789Z,19.03
2022-11-23T09:32:57.950Z,21.97
2022-11-23T09:35:26.297Z,19.93
2022-11-23T09:37:59.171Z,22.43
2022-11-23T09:40:32.357Z,21.07
2022-11-23T09:43:37.225Z,17.60
2022-11-23T09:46:15.686Z,16.30
2022-11-23T09:49:12.430Z,19.10
2022-11-23T09:51:43.391Z,19.47
2022-11-23T09:54:29.327Z,17.40
2022-11-23T09:57:01.873Z,18.30
2022-11-23T09:59:41.916Z,18.43
2022-11-23T10:02:22.240Z,19.30
2022-11-23T10:04:51.754Z,16.80
2022-11-23T10:07:38.971Z,22.67
2022-11-23T10:10:27.001Z,20.33
2022-11-23T10:13:10.287Z,13.90
2022-11-23T10:15:47.974Z,12.83
2022-11-23T10:18:32.178Z,16.00
2022-11-23T10:21:08.373Z,17.70
2022-11-23T10:23:54.620Z,14.10
2022-11-23T10:26:34.250Z,10.93
2022-11-23T10:29:14.541Z,17.67
2022-11-23T10:31:50.474Z,16.30
2022-11-23T10:34:39.492Z,12.50
2022-11-23T10:37:12.780Z,12.50
2022-11-23T10:39:41.278Z,16.27
2022-11-23T10:42:21.959Z,13.13
2022-11-23T10:44:55.503Z,11.10
2022-11-23T10:47:40.964Z,15.33
2022-11-23T10:50:30.269Z,11.13
2022-11-23T10:53:01.866Z,8.73
2022-11-23T10:55:32.464Z,11.27
2022-11-23T10:58:02.953Z,12.80
2022-11-23T11:00:31.697Z,10.63
2022-11-23T11:03:03.417Z,11.80
2022-11-23T11:06:07.575Z,11.23
2022-11-23T11:08:32.500Z,13.57
2022-11-23T11:11:04.617Z,11.63
2022-11-23T11:13:43.795Z,12.10
2022-11-23T11:16:23.115Z,11.27
2022-11-23T11:18:51.506Z,9.10
2022-11-23T11:21:22.581Z,14.60
2022-11-23T11:23:55.698Z,11.00
2022-11-23T11:26:26.162Z,12.37
2022-11-23T11:28:57.898Z,15.47
2022-11-23T11:31:38.293Z,11.93
2022-11-23T11:34:17.934Z,17.17
2022-11-23T11:36:56.160Z,18.50
2022-11-23T11:39:31.113Z,10.93
2022-11-23T11:42:06.813Z,17.90
2022-11-23T11:44:41.896Z,15.73
2022-11-23T11:47:24.659Z,15.30
2022-11-23T11:49:57.347Z,17.07
2022-11-23T11:52:33.086Z,10.97
2022-11-23T11:55:12.440Z,10.60
2022-11-23T11:57:47.547Z,13.93
2022-11-23T12:00:21.234Z,10.43
2022-11-23T12:03:08.678Z,16.20
2022-11-23T12:05:42.841Z,14.03
2022-11-23T12:08:15.830Z,11.93
2022-11-23T12:10:50.939Z,9.80
2022-11-23T12:13:22.717Z,16.63
2022-11-23T12:16:04.015Z,10.90
2022-11-23T12:18:58.307Z,7.63
2022-11-23T12:21:54.248Z,11.93
2022-11-23T12:24:41.837Z,12.97
2022-11-23T12:27:26.243Z,9.53
2022-11-23T12:30:19.051Z,10.57
2022-11-23T12:33:28.401Z,11.67
2022-11-23T12:36:13.836Z,12.20
2022-11-23T12:38:54.683Z,7.63
2022-11-23T12:41:26.157Z,13.53
2022-11-23T12:44:34.589Z,11.77
2022-11-23T12:47:13.847Z,14.07
2022-11-23T12:49:51.993Z,8.07
2022-11-23T12:52:40.850Z,9.70
2022-11-23T12:55:24.105Z,7.63
2022-11-23T12:58:01.665Z,12.93
2022-11-23T13:00:36.752Z,11.67
2022-11-23T13:03:50.164Z,16.40
2022-11-23T13:07:27.644Z,8.70
2022-11-23T13:10:05.126Z,11.10
2022-11-23T13:12:50.990Z,9.73
2022-11-23T13:15:36.833Z,9.90
2022-11-23T13:18:15.277Z,10.40
2022-11-23T13:21:12.201Z,12.20
2022-11-23T13:23:42.148Z,10.43
2022-11-23T13:26:16.419Z,11.23
2022-11-23T13:28:45.904Z,10.97
2022-11-23T13:31:27.955Z,9.00
2022-11-23T13:33:58.618Z,6.07
2022-11-23T13:37:16.085Z,7.07
2022-11-23T13:40:05.574Z,10.43
2022-11-23T13:42:36.290Z,8.47
2022-11-23T13:45:34.023Z,11.37
2022-11-23T13:48:54.911Z,10.73
2022-11-23T13:51:12.344Z,7.60
2022-11-23T13:53:42.563Z,7.90
2022-11-23T13:56:30.606Z,8.73
2022-11-23T13:59:21.781Z,6.23
2022-11-23T14:02:25.170Z,11.43
2022-11-23T14:04:53.401Z,7.67
2022-11-23T14:07:26.380Z,7.80
2022-11-23T14:09:59.032Z,6.60
2022-11-23T14:12:37.751Z,11.63
2022-11-23T14:15:14.450Z,7.73
2022-11-23T14:18:27.712Z,8.47
2022-11-23T14:21:13.851Z,7.53
2022-11-23T14:24:38.323Z,8.03
2022-11-23T14:30:47.792Z,8.17
2022-11-23T14:33:36.223Z,7.33
2022-11-23T14:36:24.326Z,13.23
2022-11-23T14:39:28.055Z,8.73
2022-11-23T14:42:01.234Z,9.60
2022-11-23T14:44:35.692Z,12.23
2022-11-23T14:47:10.649Z,10.63
2022-11-23T14:49:52.542Z,9.83
2022-11-23T14:52:24.022Z,9.17
2022-11-23T14:54:55.121Z,13.17
2022-11-23T14:57:26.956Z,14.83
2022-11-23T14:59:58.652Z,11.27
2022-11-23T15:02:35.822Z,7.97
2022-11-23T15:05:12.623Z,9.17
2022-11-23T15:07:48.375Z,6.77
2022-11-23T15:10:34.569Z,12.43
2022-11-23T15:13:02.980Z,7.60
2022-11-23T15:15:37.879Z,8.13
2022-11-23T15:18:07.604Z,11.63
2022-11-23T15:20:43.071Z,10.30
2022-11-23T15:23:21.144Z,8.80
2022-11-23T15:25:53.712Z,8.17
2022-11-23T15:28:30.461Z,9.00
2022-11-23T15:31:00.768Z,10.97
2022-11-23T15:33:30.716Z,9.10
2022-11-23T15:35:59.522Z,8.67
2022-11-23T15:38:28.057Z,9.37
2022-11-23T15:41:05.041Z,10.30
2022-11-23T15:43:34.795Z,7.67
2022-11-23T15:46:09.462Z,9.40
2022-11-23T15:48:39.823Z,9.57
2022-11-23T15:51:09.859Z,7.97
2022-11-23T15:53:52.192Z,10.43
2022-11-23T15:56:25.438Z,9.80
2022-11-23T15:58:54.980Z,8.23
2022-11-23T16:01:23.885Z,8.70
2022-11-23T16:04:01.232Z,8.20
2022-11-23T16:06:38.726Z,5.37
2022-11-23T16:09:50.572Z,6.67
2022-11-23T16:12:27.585Z,7.83
2022-11-23T16:14:58.392Z,7.07
2022-11-23T16:17:28.791Z,8.33
2022-11-23T16:20:01.044Z,11.50
2022-11-23T16:22:32.960Z,6.70
2022-11-23T16:25:08.504Z,4.73
2022-11-23T16:27:37.380Z,6.47
2022-11-23T16:30:23.342Z,7.27
2022-11-23T16:32:51.859Z,6.07
2022-11-23T16:35:22.709Z,7.60
2022-11-23T16:37:50.943Z,6.27
2022-11-23T16:40:19.447Z,7.23
2022-11-23T16:42:52.436Z,7.37
2022-11-23T16:45:20.658Z,7.50
2022-11-23T16:47:57.236Z,10.53
2022-11-23T16:50:29.051Z,6.63
2022-11-23T16:52:57.657Z,8.80
2022-11-23T16:55:25.880Z,6.77
2022-11-23T16:57:54.133Z,8.30
2022-11-23T17:00:24.631Z,7.60
2022-11-23T17:02:52.872Z,8.17
2022-11-23T17:05:24.142Z,4.20
2022-11-23T17:07:53.978Z,7.27
2022-11-23T17:10:22.346Z,9.37
2022-11-23T17:12:55.444Z,7.40
2022-11-23T17:15:25.383Z,7.30
2022-11-23T17:17:53.686Z,8.37
2022-11-23T17:20:22.094Z,8.60
2022-11-23T17:22:51.773Z,8.37
2022-11-23T17:25:21.517Z,9.57
2022-11-23T17:27:49.884Z,10.47
2022-11-23T17:30:23.198Z,7.80
2022-11-23T17:32:51.796Z,7.17
2022-11-23T17:35:20.235Z,8.40
2022-11-23T17:37:48.687Z,7.33
2022-11-23T17:40:18.564Z,8.77
2022-11-23T17:42:48.982Z,10.63
2022-11-23T17:45:18.033Z,9.30
2022-11-23T17:47:47.166Z,10.90
2022-11-23T17:50:19.344Z,9.30
2022-11-23T17:52:48.790Z,12.23
2022-11-23T17:55:18.743Z,8.73
2022-11-23T17:57:48.246Z,8.60
2022-11-23T18:00:20.991Z,10.20
2022-11-23T18:02:49.644Z,12.17
2022-11-23T18:05:21.864Z,10.50
2022-11-23T18:07:51.145Z,10.90
2022-11-23T18:10:19.824Z,6.57
2022-11-23T18:12:49.687Z,9.73
2022-11-23T18:15:18.274Z,10.10
2022-11-23T18:17:46.529Z,7.73
2022-11-23T18:20:17.635Z,5.73
2022-11-23T18:22:46.340Z,9.67
2022-11-23T18:25:15.265Z,7.77
2022-11-23T18:27:43.500Z,11.93
2022-11-23T18:30:13.739Z,9.97
2022-11-23T18:32:42.005Z,7.80
2022-11-23T18:35:11.105Z,10.57
2022-11-23T18:37:39.398Z,9.20
2022-11-23T18:40:09.413Z,8.47
2022-11-23T18:42:37.662Z,8.40
2022-11-23T18:45:08.469Z,11.23
2022-11-23T18:47:38.182Z,10.40
2022-11-23T18:50:07.563Z,9.73
2022-11-23T18:52:36.126Z,7.63
2022-11-23T18:55:04.886Z,10.73
2022-11-23T18:57:33.281Z,10.27
2022-11-23T19:00:02.182Z,12.20
2022-11-23T19:02:30.748Z,10.37
2022-11-23T19:05:00.411Z,7.80
2022-11-23T19:07:29.127Z,10.53
2022-11-23T19:09:57.486Z,11.60
2022-11-23T19:12:25.994Z,9.87
2022-11-23T19:14:56.643Z,9.60
2022-11-23T19:17:24.953Z,16.80
2022-11-23T19:19:54.288Z,13.93
2022-11-23T19:22:24.282Z,12.80
2022-11-23T19:24:53.239Z,11.07
2022-11-23T19:27:22.108Z,9.27
2022-11-23T19:29:50.321Z,12.37
2022-11-23T19:32:19.827Z,12.43
2022-11-23T19:34:48.251Z,14.20
2022-11-23T19:37:16.505Z,13.23
2022-11-23T19:39:46.946Z,17.37
2022-11-23T19:42:15.266Z,19.50
2022-11-23T19:44:43.458Z,19.37
2022-11-23T19:47:15.524Z,19.80
2022-11-23T19:49:46.094Z,18.90
2022-11-23T19:52:14.423Z,22.43
2022-11-23T19:54:42.587Z,14.90
2022-11-23T19:57:12.278Z,17.67
2022-11-23T19:59:40.527Z,14.90
2022-11-23T20:02:10.406Z,14.20
2022-11-23T20:04:38.834Z,14.47
2022-11-23T20:07:07.168Z,17.10
2022-11-23T20:09:35.984Z,14.10
2022-11-23T20:12:04.585Z,16.37
2022-11-23T20:14:34.196Z,15.50
2022-11-23T20:17:02.520Z,15.93
2022-11-23T20:19:31.009Z,15.07
2022-11-23T20:21:59.448Z,16.83
2022-11-23T20:24:27.664Z,17.57
2022-11-23T20:26:55.893Z,18.73
2022-11-23T20:29:24.060Z,19.77
2022-11-23T20:31:53.698Z,16.57
2022-11-23T20:34:26.109Z,15.57
2022-11-23T20:36:54.686Z,17.97
2022-11-23T20:39:22.990Z,18.17
2022-11-23T20:41:51.244Z,16.43
2022-11-23T20:44:19.517Z,18.80
2022-11-23T20:47:03.887Z,18.80
2022-11-23T20:49:35.344Z,18.30
2022-11-23T20:52:03.749Z,18.10
2022-11-23T20:54:32.577Z,19.37
2022-11-23T20:57:01.073Z,21.03
2022-11-23T20:59:29.962Z,20.63
2022-11-23T21:01:58.322Z,17.60
2022-11-23T21:04:27.763Z,21.17
2022-11-23T21:06:57.594Z,21.13
2022-11-23T21:09:25.847Z,19.13
2022-11-23T21:12:26.272Z,21.20
2022-11-23T21:14:54.680Z,18.07
2022-11-23T21:17:23.028Z,18.80
2022-11-23T21:19:51.709Z,18.57
2022-11-23T21:22:21.438Z,23.60
2022-11-23T21:24:49.831Z,20.00
2022-11-23T21:27:23.605Z,21.07
2022-11-23T21:29:52.845Z,19.93
2022-11-23T21:32:21.100Z,18.83
2022-11-23T21:34:49.267Z,20.33
2022-11-23T21:37:17.468Z,22.83
2022-11-23T21:39:52.656Z,19.57
2022-11-23T21:42:23.871Z,22.67
2022-11-23T21:44:52.241Z,22.50
2022-11-23T21:47:20.495Z,20.67
2022-11-23T21:49:55.201Z,19.90
2022-11-23T21:52:23.364Z,22.47
2022-11-23T21:54:52.903Z,23.83
2022-11-23T21:57:21.293Z,21.97
2022-11-23T21:59:49.644Z,22.30
2022-11-23T22:02:18.380Z,26.57
2022-11-23T22:04:46.778Z,23.13
2022-11-23T22:07:15.257Z,22.33
2022-11-23T22:09:43.824Z,23.93
2022-11-23T22:12:13.608Z,21.83
2022-11-23T22:14:42.013Z,22.17
2022-11-23T22:17:10.681Z,25.27
2022-11-23T22:19:39.174Z,22.90
2022-11-23T22:22:07.615Z,23.13
2022-11-23T22:24:36.167Z,24.43
2022-11-23T22:27:04.869Z,27.80
2022-11-23T22:29:34.751Z,25.00
2022-11-23T22:32:03.498Z,26.47
2022-11-23T22:34:35.556Z,23.47
2022-11-23T22:37:10.286Z,25.40
2022-11-23T22:39:39.063Z,26.93
2022-11-23T22:42:08.979Z,30.37
2022-11-23T22:44:39.408Z,27.07
2022-11-23T22:47:07.835Z,28.17
2022-11-23T22:49:36.233Z,29.13
2022-11-23T22:52:05.049Z,28.77
2022-11-23T22:54:34.922Z,27.83
2022-11-23T22:57:03.637Z,28.20
2022-11-23T22:59:32.273Z,29.20
2022-11-23T23:02:02.249Z,28.63
2022-11-23T23:04:30.802Z,27.67
2022-11-23T23:06:59.770Z,31.50
2022-11-23T23:09:28.138Z,31.77
2022-11-23T23:11:56.563Z,28.80
2022-11-23T23:14:24.895Z,32.40
2022-11-23T23:16:53.293Z,29.57
2022-11-23T23:19:23.334Z,27.80
2022-11-23T23:21:51.791Z,27.40
2022-11-23T23:24:21.936Z,27.30
2022-11-23T23:26:50.340Z,25.67
2022-11-23T23:29:18.779Z,26.03
2022-11-23T23:31:47.388Z,32.00
2022-11-23T23:34:15.843Z,29.50
2022-11-23T23:36:45.701Z,23.03
2022-11-23T23:39:14.321Z,27.30
2022-11-23T23:41:42.774Z,22.97
2022-11-23T23:44:11.934Z,28.47
2022-11-23T23:46:40.419Z,25.00
2022-11-23T23:49:08.857Z,24.17
2022-11-23T23:51:37.332Z,23.63
2022-11-23T23:54:07.186Z,28.67
2022-11-23T23:56:35.610Z,26.87
2022-11-23T23:59:04.047Z,26.20
